Latest Weather Observations for Hogan Island

IDT60801

Issued at 4:31 pm EST Tuesday 7 July 2015 (issued every 30 minutes, with the page automatically refreshed every 10 minutes)

About weather observations | Map of weather stations | Latest weather observations for TAS | Other Formats
Station Details ID: 200838 Name: HOGAN ISLAND Lat: -39.22 Lon: 146.98 Height: 116.0 m
Data from the previous 72 hours. | See also: Recent months at Hogan Island
Date/Time
EST
Temp
°C
App
Temp
°C
Dew
Point
Rel
Hum
%
Delta-T
°C
Wind Press
QNH
hPa
Press
MSL
hPa
Rain
since 9 am
mm
Dir
 
Spd
km/h
Gust
km/h
Spd
kts
Gust
kts
07/04:30pm 9.1 6.6 4.5 73 2.0 S 7 9 4 5 1024.7 - 0.0
07/04:00pm 9.0 6.0 4.2 72 2.1 SSE 9 13 5 7 1024.5 - 0.0
07/03:30pm 9.9 6.3 5.1 72 2.2 SSE 13 17 7 9 1024.3 - 0.0
07/03:00pm 9.9 5.9 5.1 72 2.2 SE 15 20 8 11 1024.0 1024.1 0.0
07/02:30pm 10.2 6.0 5.6 73 2.1 SE 17 20 9 11 1023.7 - 0.0
07/02:00pm 10.1 5.4 5.3 72 2.2 SE 19 24 10 13 1023.5 - 0.0
07/01:30pm 10.3 6.0 5.3 71 2.3 ESE 17 20 9 11 1023.5 - 0.0
07/01:00pm 10.5 5.3 5.7 72 2.2 ESE 22 28 12 15 1023.5 - 0.0
07/12:30pm 10.2 5.0 5.4 72 2.2 ESE 22 28 12 15 1023.6 - 0.0
07/12:00pm 10.5 5.0 5.9 73 2.1 ESE 24 28 13 15 1023.6 1023.7 0.0
07/11:30am 10.0 4.0 5.4 73 2.1 E 26 32 14 17 1023.8 - 0.0
07/11:00am 10.6 4.5 6.4 75 2.0 ESE 28 37 15 20 1023.8 - 0.0
07/10:30am 10.0 3.4 6.0 76 1.9 ESE 30 39 16 21 1023.7 - 0.0
07/10:00am 9.5 3.2 5.7 77 1.7 ESE 28 33 15 18 1023.5 - 0.0
07/09:30am 8.9 2.1 5.3 78 1.6 ESE 30 35 16 19 1023.2 - 0.0
07/09:00am 8.8 2.5 5.7 81 1.4 ESE 28 33 15 18 1022.8 1022.9 9.8
07/08:30am 8.4 2.0 5.3 81 1.4 ESE 28 32 15 17 1022.5 - 9.8
07/08:00am 8.4 2.0 5.2 80 1.4 ESE 28 33 15 18 1022.2 - 9.8
07/07:30am 8.0 2.7 4.9 81 1.4 ESE 22 24 12 13 1022.2 - 9.8
07/07:00am 7.7 1.6 5.0 83 1.2 SE 26 28 14 15 1021.7 - 9.8
07/06:30am 7.7 2.4 5.0 83 1.2 ESE 22 28 12 15 1021.2 - 9.8
07/06:00am 7.7 2.0 4.7 81 1.3 ESE 24 26 13 14 1020.8 1020.9 9.4
07/05:30am 8.6 1.8 5.2 79 1.5 ESE 30 35 16 19 1020.3 - 9.0
07/05:00am 8.7 3.1 5.4 80 1.5 ESE 24 28 13 15 1020.0 - 9.0
07/04:30am 8.8 3.2 5.5 80 1.5 ESE 24 30 13 16 1019.6 - 9.0
07/04:00am 8.8 2.8 5.5 80 1.5 SE 26 30 14 16 1019.4 - 9.0
07/03:30am 9.0 2.3 5.7 80 1.5 SE 30 35 16 19 1019.3 - 9.0
07/03:00am 8.7 1.4 5.4 80 1.5 ESE 33 39 18 21 1019.2 1019.4 9.0
07/02:30am 8.8 1.2 5.7 81 1.4 ESE 35 43 19 23 1019.1 - 9.0
07/02:00am 8.8 1.7 6.2 84 1.2 ESE 33 43 18 23 1018.8 - 9.0
07/01:30am 8.6 0.7 6.4 86 1.0 ESE 37 43 20 23 1018.5 - 9.0
07/01:00am 8.5 0.3 6.6 88 0.9 ESE 39 48 21 26 1018.4 - 9.0
07/12:30am 8.4 -0.5 6.9 90 0.7 ESE 43 50 23 27 1018.2 - 9.0
07/12:00am 8.6 -0.2 7.2 91 0.7 ESE 43 50 23 27 1018.1 1018.3 8.8
 
Date/Time
EST
Temp
°C
App
Temp
°C
Dew
Point
Rel
Hum
%
Delta-T
°C
Wind Press
QNH
hPa
Press
MSL
hPa
Rain
since 9 am
mm
Dir
 
Spd
km/h
Gust
km/h
Spd
kts
Gust
kts
06/11:30pm 8.4 -0.5 7.0 91 0.7 ESE 43 50 23 27 1018.0 - 8.8
06/11:00pm 8.5 0.0 7.0 90 0.7 ESE 41 50 22 27 1018.0 - 8.8
06/10:30pm 8.7 0.3 7.2 90 0.7 ESE 41 50 22 27 1017.9 - 8.8
06/10:00pm 8.8 -0.2 7.3 90 0.7 ESE 44 52 24 28 1017.7 - 8.8
06/09:30pm 8.9 0.2 7.5 91 0.7 ESE 43 48 23 26 1017.3 - 8.8
06/09:00pm 8.8 -0.1 7.6 92 0.6 ESE 44 50 24 27 1016.9 1017.0 8.8
06/08:30pm 9.0 0.2 7.9 93 0.5 ESE 44 52 24 28 1016.5 - 8.8
06/08:00pm 9.1 0.3 8.0 93 0.5 ESE 44 54 24 29 1016.1 - 8.6
06/07:30pm 9.3 3.5 8.1 92 0.6 E 28 39 15 21 1016.2 - 7.8
06/07:17pm 9.8 5.9 8.6 92 0.6 SSW 19 37 10 20 1016.6 - 5.8
06/07:00pm 9.8 1.6 8.4 91 0.7 W 41 46 22 25 1015.7 - 4.4
06/06:30pm 10.0 1.3 8.4 90 0.8 W 44 50 24 27 1015.2 - 3.8
06/06:00pm 10.0 1.5 8.4 90 0.8 W 43 50 23 27 1014.8 1014.9 3.8
06/05:30pm 9.9 1.2 8.3 90 0.8 W 44 50 24 27 1014.5 - 3.6
06/05:00pm 9.7 0.5 8.0 89 0.8 W 46 54 25 29 1014.2 - 3.6
06/04:30pm 9.8 0.2 7.9 88 0.9 W 48 57 26 31 1013.8 - 3.0
06/04:00pm 10.1 -0.2 8.0 87 1.0 W 52 59 28 32 1013.5 - 2.4
06/03:30pm 10.0 0.0 7.8 86 1.1 W 50 56 27 30 1013.4 - 1.8
06/03:00pm 10.1 0.1 7.9 86 1.1 W 50 57 27 31 1013.1 1013.2 1.0
06/02:30pm 10.3 -0.4 8.1 86 1.1 W 54 61 29 33 1012.9 - 0.6
06/02:00pm 10.2 -1.0 7.6 84 1.3 W 56 63 30 34 1012.8 - 0.4
06/01:30pm 10.3 -1.2 7.2 81 1.5 W 57 69 31 37 1012.9 - 0.4
06/01:00pm 10.5 -1.1 6.6 77 1.8 W 57 67 31 36 1012.9 - 0.0
06/12:30pm 11.3 2.2 7.0 75 2.1 W 44 54 24 29 1013.2 - 0.0
06/12:00pm 11.1 2.1 6.6 74 2.1 W 43 54 23 29 1013.4 1013.5 0.0
06/11:30am 11.6 2.5 6.7 72 2.3 W 44 56 24 30 1013.6 - 0.0
06/11:00am 11.5 1.6 6.4 71 2.4 W 48 57 26 31 1013.7 - 0.0
06/10:30am 11.7 1.0 6.6 71 2.4 W 52 61 28 33 1013.6 - 0.0
06/10:00am 11.9 0.5 6.8 71 2.4 W 56 63 30 34 1013.3 - 0.0
06/09:30am 11.6 2.7 6.9 73 2.3 WNW 43 52 23 28 1013.5 - 0.0
06/09:00am 11.7 0.6 6.4 70 2.5 W 54 65 29 35 1013.3 1013.4 0.0
06/08:30am 11.5 2.9 6.6 72 2.3 WNW 41 50 22 27 1013.4 - 0.0
06/08:00am 11.5 3.7 6.6 72 2.3 WNW 37 44 20 24 1013.5 - 0.0
06/07:30am 11.5 1.9 6.4 71 2.4 W 46 56 25 30 1013.3 - 0.0
06/07:00am 11.2 2.1 6.1 71 2.4 WNW 43 50 23 27 1013.2 - 0.0
06/06:30am 11.1 1.8 6.0 71 2.4 WNW 44 50 24 27 1013.0 - 0.0
06/06:00am 11.4 2.2 6.5 72 2.3 WNW 44 52 24 28 1012.9 1013.0 0.0
06/05:30am 11.5 3.7 6.6 72 2.3 WNW 37 44 20 24 1013.2 - 0.0
06/05:00am 11.5 3.7 6.6 72 2.3 WNW 37 43 20 23 1013.2 - 0.0
06/04:30am 11.1 2.0 5.8 70 2.5 WNW 43 48 23 26 1013.2 - 0.0
06/04:00am 11.1 1.8 5.8 70 2.5 WNW 44 50 24 27 1013.2 - 0.0
06/03:30am 11.1 -0.2 5.4 68 2.6 WNW 54 61 29 33 1013.1 - 0.0
06/03:00am 11.2 0.0 5.9 70 2.5 WNW 54 59 29 32 1013.3 1013.4 0.0
06/02:30am 11.0 -0.2 6.0 71 2.3 WNW 54 59 29 32 1013.6 - 0.0
06/02:00am 10.7 -0.8 6.1 73 2.2 WNW 56 63 30 34 1013.6 - 0.0
06/01:30am 10.1 -1.1 5.7 74 2.0 WNW 54 61 29 33 1013.7 - 0.0
06/01:00am 11.1 -0.7 5.6 69 2.6 WNW 57 67 31 36 1013.8 - 0.0
06/12:30am 11.1 -0.6 5.4 68 2.6 WNW 56 61 30 33 1014.0 - 0.0
06/12:00am 11.4 -0.4 5.7 68 2.7 WNW 57 63 31 34 1014.3 1014.4 0.0
 
Date/Time
EST
Temp
°C
App
Temp
°C
Dew
Point
Rel
Hum
%
Delta-T
°C
Wind Press
QNH
hPa
Press
MSL
hPa
Rain
since 9 am
mm
Dir
 
Spd
km/h
Gust
km/h
Spd
kts
Gust
kts
05/11:30pm 11.4 -0.4 5.7 68 2.7 WNW 57 65 31 35 1014.3 - 0.0
05/11:00pm 11.4 -0.4 5.9 69 2.6 WNW 57 65 31 35 1014.5 - 0.0
05/10:30pm 11.4 -0.2 5.9 69 2.6 WNW 56 65 30 35 1014.5 - 0.0
05/10:00pm 11.3 -0.3 6.0 70 2.5 WNW 56 65 30 35 1014.8 - 0.0
05/09:30pm 11.3 -0.2 6.2 71 2.4 WNW 56 63 30 34 1014.8 - 0.0
05/09:00pm 11.3 -0.4 6.2 71 2.4 WNW 57 65 31 35 1014.8 1014.9 0.0
05/08:30pm 11.5 -0.2 6.4 71 2.4 WNW 57 65 31 35 1015.0 - 0.0
05/08:00pm 11.5 0.5 6.6 72 2.3 WNW 54 61 29 33 1015.0 - 0.0
05/07:30pm 11.6 1.0 6.7 72 2.3 WNW 52 63 28 34 1015.1 - 0.0
05/07:00pm 11.9 1.3 6.8 71 2.4 WNW 52 59 28 32 1015.1 - 0.0
05/06:30pm 12.1 0.8 7.0 71 2.5 WNW 56 61 30 33 1014.9 - 0.0
05/06:00pm 12.0 2.7 7.5 74 2.2 WNW 46 52 25 28 1015.1 1015.2 0.0
05/05:30pm 12.2 2.5 7.5 73 2.3 WNW 48 54 26 29 1014.9 - 0.0
05/05:00pm 12.2 3.5 7.7 74 2.2 WNW 43 52 23 28 1014.8 - 0.0
05/04:30pm 12.2 4.3 7.7 74 2.2 WNW 39 44 21 24 1014.9 - 0.0
05/04:00pm 12.7 3.8 7.8 72 2.4 WNW 44 56 24 30 1015.0 - 0.0
05/03:30pm 12.5 1.6 7.4 71 2.5 WNW 54 61 29 33 1014.7 - 0.0
05/03:00pm 12.7 2.2 7.4 70 2.6 WNW 52 61 28 33 1014.7 1014.8 0.0
05/02:30pm 13.2 2.0 7.6 69 2.8 WNW 56 63 30 34 1014.7 - 0.0
05/02:00pm 12.8 1.5 7.3 69 2.7 WNW 56 63 30 34 1014.9 - 0.0
05/01:30pm 13.1 4.5 8.2 72 2.4 WNW 43 50 23 27 1015.3 - 0.0
05/01:00pm 12.3 2.7 7.8 74 2.2 WNW 48 56 26 30 1015.5 - 0.0
05/12:30pm 12.0 2.4 7.9 76 2.0 WNW 48 56 26 30 1015.6 - 0.0
05/12:00pm 11.8 1.0 7.5 75 2.1 WNW 54 61 29 33 1015.9 1016.0 0.0
05/11:30am 11.7 1.3 7.6 76 2.0 WNW 52 61 28 33 1016.2 - 0.0
05/11:00am 11.4 -0.1 7.3 76 2.0 WNW 57 63 31 34 1016.4 - 0.0
05/10:30am 11.2 -0.1 7.3 77 1.9 WNW 56 63 30 34 1016.7 - 0.0
05/10:00am 11.1 0.2 7.2 77 1.9 WNW 54 61 29 33 1016.7 - 0.0
05/09:30am 11.1 0.6 7.2 77 1.9 WNW 52 59 28 32 1016.9 - 0.0
05/09:00am 10.9 0.3 7.0 77 1.9 WNW 52 61 28 33 1016.8 1016.9 0.2
05/08:30am 10.8 -0.7 7.1 78 1.8 WNW 57 63 31 34 1016.5 - 0.2
05/08:00am 10.5 -0.8 7.2 80 1.6 WNW 56 61 30 33 1016.6 - 0.2
05/07:30am 10.4 -0.5 7.1 80 1.6 WNW 54 59 29 32 1016.6 - 0.2
05/07:00am 10.4 -0.5 7.3 81 1.5 WNW 54 59 29 32 1016.7 - 0.2
05/06:30am 10.4 -0.1 7.3 81 1.5 WNW 52 57 28 31 1016.5 - 0.2
05/06:00am 10.3 -0.2 7.2 81 1.5 WNW 52 57 28 31 1016.4 1016.5 0.2
05/05:30am 10.4 0.3 7.3 81 1.5 WNW 50 59 27 32 1016.6 - 0.2
05/05:00am 10.5 0.8 7.4 81 1.5 WNW 48 56 26 30 1016.7 - 0.2
05/04:30am 10.7 0.3 7.6 81 1.5 WNW 52 57 28 31 1016.6 - 0.2
05/04:00am 10.5 -0.3 7.6 82 1.4 WNW 54 63 29 34 1016.6 - 0.2
05/03:30am 10.6 -0.2 7.7 82 1.4 WNW 54 59 29 32 1016.8 - 0.2
05/03:00am 10.6 0.6 7.7 82 1.4 WNW 50 57 27 31 1017.0 1017.1 0.2
05/02:30am 10.5 0.9 7.9 84 1.3 WNW 48 59 26 32 1017.2 - 0.2
05/02:00am 10.4 1.6 8.0 85 1.2 WNW 44 56 24 30 1017.4 - 0.2
05/01:30am 10.5 -0.2 8.1 85 1.2 WNW 54 61 29 33 1017.2 - 0.2
05/01:00am 10.4 -0.7 8.2 86 1.1 WNW 56 63 30 34 1017.1 - 0.2
05/12:30am 10.7 -0.3 8.3 85 1.2 WNW 56 63 30 34 1017.2 - 0.2
05/12:00am 10.7 0.4 8.3 85 1.2 WNW 52 59 28 32 1017.6 1017.8 0.2
 
Date/Time
EST
Temp
°C
App
Temp
°C
Dew
Point
Rel
Hum
%
Delta-T
°C
Wind Press
QNH
hPa
Press
MSL
hPa
Rain
since 9 am
mm
Dir
 
Spd
km/h
Gust
km/h
Spd
kts
Gust
kts
04/11:30pm 10.9 1.9 8.7 86 1.1 WNW 46 54 25 29 1017.6 - 0.2
04/11:00pm 10.8 1.0 8.6 86 1.1 WNW 50 57 27 31 1017.4 - 0.2
04/10:30pm 11.0 1.6 8.9 87 1.0 WNW 48 57 26 31 1017.6 - 0.2
04/10:00pm 11.1 1.0 8.8 86 1.1 WNW 52 63 28 34 1017.7 - 0.2
04/09:30pm 11.1 0.6 8.7 85 1.2 WNW 54 70 29 38 1017.7 - 0.2
04/09:00pm 11.2 1.1 8.9 86 1.1 WNW 52 59 28 32 1017.7 1017.9 0.2
04/08:30pm 11.0 1.3 8.9 87 1.0 WNW 50 61 27 33 1017.6 - 0.2
04/08:00pm 10.9 0.8 8.8 87 1.0 WNW 52 63 28 34 1017.7 - 0.2
04/07:30pm 10.8 0.7 8.9 88 0.9 WNW 52 63 28 34 1017.7 - 0.2
04/07:00pm 11.1 0.7 9.4 89 0.9 WNW 54 65 29 35 1017.5 - 0.2
04/06:30pm 10.9 -1.6 9.3 90 0.8 W 65 74 35 40 1016.9 - 0.0
04/06:00pm 10.9 -0.1 9.3 90 0.8 WNW 57 67 31 36 1017.0 1017.1 0.0
04/05:30pm 10.6 -0.5 8.9 89 0.8 WNW 57 69 31 37 1016.5 - 0.0
04/05:06pm 10.8 0.0 9.1 89 0.9 WNW 56 74 30 40 1016.5 - 0.0
04/05:00pm 10.5 -0.6 8.6 88 0.9 WNW 57 69 31 37 1016.6 - 0.0

Other Formats:

Comma delimited format used in spreadsheet applications
http://www.bom.gov.au/fwo/IDT60801/IDT60801.94949.axf

JavaScript Object Notation format (JSON) in row-major order
http://www.bom.gov.au/fwo/IDT60801/IDT60801.94949.json